sensor_id;sensor_type;location;lat;lon;timestamp;P1;durP1;ratioP1;P2;durP2;ratioP2
5349;SDS011;2697;42.144;24.794;2023-02-28T00:00:49;15.50;;;7.00;;
5349;SDS011;2697;42.144;24.794;2023-02-28T00:03:15;16.00;;;7.43;;
5349;SDS011;2697;42.144;24.794;2023-02-28T00:05:40;26.10;;;9.00;;
5349;SDS011;2697;42.144;24.794;2023-02-28T00:08:06;13.93;;;6.10;;
5349;SDS011;2697;42.144;24.794;2023-02-28T00:10:32;27.13;;;6.80;;
5349;SDS011;2697;42.144;24.794;2023-02-28T00:13:02;15.43;;;6.10;;
5349;SDS011;2697;42.144;24.794;2023-02-28T00:15:30;25.13;;;7.37;;
5349;SDS011;2697;42.144;24.794;2023-02-28T00:17:56;13.37;;;7.60;;
5349;SDS011;2697;42.144;24.794;2023-02-28T00:20:21;15.90;;;7.60;;
5349;SDS011;2697;42.144;24.794;2023-02-28T00:22:48;26.83;;;8.40;;
5349;SDS011;2697;42.144;24.794;2023-02-28T00:25:17;20.20;;;8.07;;
5349;SDS011;2697;42.144;24.794;2023-02-28T00:27:45;21.63;;;8.60;;
5349;SDS011;2697;42.144;24.794;2023-02-28T00:30:12;14.33;;;6.70;;
5349;SDS011;2697;42.144;24.794;2023-02-28T00:32:39;24.40;;;7.57;;
5349;SDS011;2697;42.144;24.794;2023-02-28T00:35:05;19.70;;;7.47;;
5349;SDS011;2697;42.144;24.794;2023-02-28T00:37:31;25.53;;;7.97;;
5349;SDS011;2697;42.144;24.794;2023-02-28T00:39:57;18.37;;;6.90;;
5349;SDS011;2697;42.144;24.794;2023-02-28T00:42:22;20.30;;;6.93;;
5349;SDS011;2697;42.144;24.794;2023-02-28T00:44:48;13.93;;;6.50;;
5349;SDS011;2697;42.144;24.794;2023-02-28T00:47:14;17.70;;;8.27;;
5349;SDS011;2697;42.144;24.794;2023-02-28T00:49:39;27.17;;;7.83;;
5349;SDS011;2697;42.144;24.794;2023-02-28T00:52:05;28.73;;;7.40;;
5349;SDS011;2697;42.144;24.794;2023-02-28T00:54:30;18.77;;;6.40;;
5349;SDS011;2697;42.144;24.794;2023-02-28T00:56:55;15.37;;;7.83;;
5349;SDS011;2697;42.144;24.794;2023-02-28T00:59:21;23.13;;;7.97;;
5349;SDS011;2697;42.144;24.794;2023-02-28T01:01:46;25.50;;;7.73;;
5349;SDS011;2697;42.144;24.794;2023-02-28T01:04:12;14.90;;;7.03;;
5349;SDS011;2697;42.144;24.794;2023-02-28T01:06:39;19.00;;;7.10;;
5349;SDS011;2697;42.144;24.794;2023-02-28T01:09:05;17.60;;;6.53;;
5349;SDS011;2697;42.144;24.794;2023-02-28T01:11:31;20.93;;;6.63;;
5349;SDS011;2697;42.144;24.794;2023-02-28T01:13:57;17.70;;;8.60;;
5349;SDS011;2697;42.144;24.794;2023-02-28T01:16:23;18.00;;;5.97;;
5349;SDS011;2697;42.144;24.794;2023-02-28T01:18:49;13.83;;;5.93;;
5349;SDS011;2697;42.144;24.794;2023-02-28T01:21:15;35.70;;;7.83;;
5349;SDS011;2697;42.144;24.794;2023-02-28T01:23:43;32.80;;;7.00;;
5349;SDS011;2697;42.144;24.794;2023-02-28T01:26:11;21.07;;;6.63;;
5349;SDS011;2697;42.144;24.794;2023-02-28T01:28:42;20.83;;;6.80;;
5349;SDS011;2697;42.144;24.794;2023-02-28T01:31:08;13.17;;;5.60;;
5349;SDS011;2697;42.144;24.794;2023-02-28T01:33:35;21.00;;;6.07;;
5349;SDS011;2697;42.144;24.794;2023-02-28T01:36:04;26.27;;;8.40;;
5349;SDS011;2697;42.144;24.794;2023-02-28T01:38:31;24.60;;;6.50;;
5349;SDS011;2697;42.144;24.794;2023-02-28T01:40:57;16.53;;;6.03;;
5349;SDS011;2697;42.144;24.794;2023-02-28T01:43:24;14.90;;;6.57;;
5349;SDS011;2697;42.144;24.794;2023-02-28T01:45:52;21.23;;;6.10;;
5349;SDS011;2697;42.144;24.794;2023-02-28T01:48:19;30.53;;;6.00;;
5349;SDS011;2697;42.144;24.794;2023-02-28T01:50:51;15.93;;;5.93;;
5349;SDS011;2697;42.144;24.794;2023-02-28T01:53:18;13.47;;;7.03;;
5349;SDS011;2697;42.144;24.794;2023-02-28T01:55:48;10.90;;;5.57;;
5349;SDS011;2697;42.144;24.794;2023-02-28T01:58:17;16.23;;;6.40;;
5349;SDS011;2697;42.144;24.794;2023-02-28T02:00:43;15.03;;;5.40;;
5349;SDS011;2697;42.144;24.794;2023-02-28T02:03:09;15.63;;;5.77;;
5349;SDS011;2697;42.144;24.794;2023-02-28T02:05:38;21.63;;;6.80;;
5349;SDS011;2697;42.144;24.794;2023-02-28T02:08:05;16.43;;;4.80;;
5349;SDS011;2697;42.144;24.794;2023-02-28T02:36:48;32.87;;;10.40;;
5349;SDS011;2697;42.144;24.794;2023-02-28T02:39:38;21.93;;;9.30;;
5349;SDS011;2697;42.144;24.794;2023-02-28T02:42:16;28.20;;;9.90;;
5349;SDS011;2697;42.144;24.794;2023-02-28T02:44:51;31.47;;;10.57;;
5349;SDS011;2697;42.144;24.794;2023-02-28T02:47:27;37.07;;;9.83;;
5349;SDS011;2697;42.144;24.794;2023-02-28T02:49:57;15.10;;;8.60;;
5349;SDS011;2697;42.144;24.794;2023-02-28T02:52:26;25.80;;;12.70;;
5349;SDS011;2697;42.144;24.794;2023-02-28T02:55:01;28.33;;;9.63;;
5349;SDS011;2697;42.144;24.794;2023-02-28T02:57:31;48.83;;;12.40;;
5349;SDS011;2697;42.144;24.794;2023-02-28T03:00:02;30.60;;;11.37;;
5349;SDS011;2697;42.144;24.794;2023-02-28T03:02:30;32.03;;;9.83;;
5349;SDS011;2697;42.144;24.794;2023-02-28T03:05:00;28.33;;;11.10;;
5349;SDS011;2697;42.144;24.794;2023-02-28T03:07:29;45.00;;;10.73;;
5349;SDS011;2697;42.144;24.794;2023-02-28T03:09:55;21.10;;;10.80;;
5349;SDS011;2697;42.144;24.794;2023-02-28T03:12:23;37.17;;;11.60;;
5349;SDS011;2697;42.144;24.794;2023-02-28T03:15:05;44.83;;;11.60;;
5349;SDS011;2697;42.144;24.794;2023-02-28T03:20:33;32.90;;;12.33;;
5349;SDS011;2697;42.144;24.794;2023-02-28T03:25:53;34.77;;;13.67;;
5349;SDS011;2697;42.144;24.794;2023-02-28T03:29:22;41.93;;;14.87;;
5349;SDS011;2697;42.144;24.794;2023-02-28T03:31:32;42.57;;;14.83;;
5349;SDS011;2697;42.144;24.794;2023-02-28T03:36:57;43.70;;;16.67;;
5349;SDS011;2697;42.144;24.794;2023-02-28T03:39:37;46.97;;;16.60;;
5349;SDS011;2697;42.144;24.794;2023-02-28T03:42:08;48.17;;;15.37;;
5349;SDS011;2697;42.144;24.794;2023-02-28T03:44:49;38.47;;;14.80;;
5349;SDS011;2697;42.144;24.794;2023-02-28T03:47:23;30.53;;;14.63;;
5349;SDS011;2697;42.144;24.794;2023-02-28T03:49:59;40.10;;;17.93;;
5349;SDS011;2697;42.144;24.794;2023-02-28T03:52:31;61.93;;;16.70;;
5349;SDS011;2697;42.144;24.794;2023-02-28T03:55:01;41.03;;;16.33;;
5349;SDS011;2697;42.144;24.794;2023-02-28T03:57:40;27.73;;;13.20;;
5349;SDS011;2697;42.144;24.794;2023-02-28T04:00:20;25.67;;;11.43;;
5349;SDS011;2697;42.144;24.794;2023-02-28T04:02:49;33.77;;;12.27;;
5349;SDS011;2697;42.144;24.794;2023-02-28T04:05:18;23.00;;;10.90;;
5349;SDS011;2697;42.144;24.794;2023-02-28T04:07:44;15.93;;;7.67;;
5349;SDS011;2697;42.144;24.794;2023-02-28T04:10:10;22.60;;;8.40;;
5349;SDS011;2697;42.144;24.794;2023-02-28T04:12:37;28.13;;;11.80;;
5349;SDS011;2697;42.144;24.794;2023-02-28T04:15:02;24.10;;;8.57;;
5349;SDS011;2697;42.144;24.794;2023-02-28T04:17:28;23.17;;;10.80;;
5349;SDS011;2697;42.144;24.794;2023-02-28T04:19:53;24.90;;;11.87;;
5349;SDS011;2697;42.144;24.794;2023-02-28T04:22:21;22.73;;;8.77;;
5349;SDS011;2697;42.144;24.794;2023-02-28T04:24:46;17.30;;;10.40;;
5349;SDS011;2697;42.144;24.794;2023-02-28T04:27:12;27.63;;;12.13;;
5349;SDS011;2697;42.144;24.794;2023-02-28T04:29:37;18.10;;;8.53;;
5349;SDS011;2697;42.144;24.794;2023-02-28T04:32:03;19.33;;;8.77;;
5349;SDS011;2697;42.144;24.794;2023-02-28T04:34:30;19.10;;;10.47;;
5349;SDS011;2697;42.144;24.794;2023-02-28T04:36:56;26.07;;;9.60;;
5349;SDS011;2697;42.144;24.794;2023-02-28T04:39:23;19.57;;;7.10;;
5349;SDS011;2697;42.144;24.794;2023-02-28T04:41:49;20.83;;;9.77;;
5349;SDS011;2697;42.144;24.794;2023-02-28T04:44:15;14.60;;;7.70;;
5349;SDS011;2697;42.144;24.794;2023-02-28T04:46:40;21.70;;;10.90;;
5349;SDS011;2697;42.144;24.794;2023-02-28T04:49:07;22.43;;;8.20;;
5349;SDS011;2697;42.144;24.794;2023-02-28T04:51:34;20.27;;;9.97;;
5349;SDS011;2697;42.144;24.794;2023-02-28T04:54:00;36.83;;;10.60;;
5349;SDS011;2697;42.144;24.794;2023-02-28T04:56:25;18.03;;;8.67;;
5349;SDS011;2697;42.144;24.794;2023-02-28T04:58:50;16.70;;;8.50;;
5349;SDS011;2697;42.144;24.794;2023-02-28T05:03:46;15.30;;;7.97;;
5349;SDS011;2697;42.144;24.794;2023-02-28T05:06:12;29.60;;;13.80;;
5349;SDS011;2697;42.144;24.794;2023-02-28T05:08:38;34.10;;;11.97;;
5349;SDS011;2697;42.144;24.794;2023-02-28T05:11:06;27.83;;;13.10;;
5349;SDS011;2697;42.144;24.794;2023-02-28T05:13:36;20.80;;;10.63;;
5349;SDS011;2697;42.144;24.794;2023-02-28T05:16:01;28.00;;;10.90;;
5349;SDS011;2697;42.144;24.794;2023-02-28T05:18:26;35.63;;;10.73;;
5349;SDS011;2697;42.144;24.794;2023-02-28T05:20:52;22.47;;;11.10;;
5349;SDS011;2697;42.144;24.794;2023-02-28T05:23:17;26.87;;;12.00;;
5349;SDS011;2697;42.144;24.794;2023-02-28T05:25:44;27.30;;;10.10;;
5349;SDS011;2697;42.144;24.794;2023-02-28T05:28:10;23.03;;;7.80;;
5349;SDS011;2697;42.144;24.794;2023-02-28T05:30:35;24.63;;;10.50;;
5349;SDS011;2697;42.144;24.794;2023-02-28T05:33:00;25.63;;;11.03;;
5349;SDS011;2697;42.144;24.794;2023-02-28T05:35:26;29.17;;;10.13;;
5349;SDS011;2697;42.144;24.794;2023-02-28T05:37:51;24.50;;;10.73;;
5349;SDS011;2697;42.144;24.794;2023-02-28T05:40:18;18.33;;;9.70;;
5349;SDS011;2697;42.144;24.794;2023-02-28T05:42:45;15.93;;;8.00;;
5349;SDS011;2697;42.144;24.794;2023-02-28T05:45:11;28.90;;;11.57;;
5349;SDS011;2697;42.144;24.794;2023-02-28T05:47:36;22.30;;;10.03;;
5349;SDS011;2697;42.144;24.794;2023-02-28T05:50:01;19.67;;;10.43;;
5349;SDS011;2697;42.144;24.794;2023-02-28T05:52:28;17.20;;;7.73;;
5349;SDS011;2697;42.144;24.794;2023-02-28T05:54:54;17.13;;;8.47;;
5349;SDS011;2697;42.144;24.794;2023-02-28T05:57:20;29.67;;;11.57;;
5349;SDS011;2697;42.144;24.794;2023-02-28T05:59:45;17.13;;;7.47;;
5349;SDS011;2697;42.144;24.794;2023-02-28T06:02:12;34.93;;;11.33;;
5349;SDS011;2697;42.144;24.794;2023-02-28T06:04:39;29.93;;;11.87;;
5349;SDS011;2697;42.144;24.794;2023-02-28T06:07:05;37.03;;;10.70;;
5349;SDS011;2697;42.144;24.794;2023-02-28T06:09:31;33.90;;;12.50;;
5349;SDS011;2697;42.144;24.794;2023-02-28T06:11:57;15.70;;;6.77;;
5349;SDS011;2697;42.144;24.794;2023-02-28T06:14:23;18.73;;;7.13;;
5349;SDS011;2697;42.144;24.794;2023-02-28T06:16:49;15.37;;;7.33;;
5349;SDS011;2697;42.144;24.794;2023-02-28T06:19:14;22.27;;;10.40;;
5349;SDS011;2697;42.144;24.794;2023-02-28T06:21:40;33.40;;;11.97;;
5349;SDS011;2697;42.144;24.794;2023-02-28T06:24:06;31.97;;;10.63;;
5349;SDS011;2697;42.144;24.794;2023-02-28T06:26:32;43.30;;;10.20;;
5349;SDS011;2697;42.144;24.794;2023-02-28T06:28:57;25.77;;;12.10;;
5349;SDS011;2697;42.144;24.794;2023-02-28T06:31:23;19.83;;;10.43;;
5349;SDS011;2697;42.144;24.794;2023-02-28T06:33:50;23.93;;;10.87;;
5349;SDS011;2697;42.144;24.794;2023-02-28T06:36:16;41.00;;;11.33;;
5349;SDS011;2697;42.144;24.794;2023-02-28T06:38:42;21.50;;;10.23;;
5349;SDS011;2697;42.144;24.794;2023-02-28T06:41:09;30.20;;;12.30;;
5349;SDS011;2697;42.144;24.794;2023-02-28T06:43:40;14.50;;;7.47;;
5349;SDS011;2697;42.144;24.794;2023-02-28T06:46:08;23.57;;;12.10;;
5349;SDS011;2697;42.144;24.794;2023-02-28T06:48:35;17.50;;;7.03;;
5349;SDS011;2697;42.144;24.794;2023-02-28T06:51:05;26.00;;;11.67;;
5349;SDS011;2697;42.144;24.794;2023-02-28T06:53:32;28.13;;;9.80;;
5349;SDS011;2697;42.144;24.794;2023-02-28T06:55:58;28.90;;;12.83;;
5349;SDS011;2697;42.144;24.794;2023-02-28T06:58:23;23.63;;;8.20;;
5349;SDS011;2697;42.144;24.794;2023-02-28T07:00:50;16.30;;;8.80;;
5349;SDS011;2697;42.144;24.794;2023-02-28T07:03:17;46.30;;;11.53;;
5349;SDS011;2697;42.144;24.794;2023-02-28T07:05:43;20.63;;;9.77;;
5349;SDS011;2697;42.144;24.794;2023-02-28T07:08:10;22.53;;;11.43;;
5349;SDS011;2697;42.144;24.794;2023-02-28T07:10:38;20.50;;;8.60;;
5349;SDS011;2697;42.144;24.794;2023-02-28T07:13:05;32.03;;;12.30;;
5349;SDS011;2697;42.144;24.794;2023-02-28T07:15:31;18.33;;;7.80;;
5349;SDS011;2697;42.144;24.794;2023-02-28T07:17:57;23.60;;;9.50;;
5349;SDS011;2697;42.144;24.794;2023-02-28T07:20:22;33.07;;;9.23;;
5349;SDS011;2697;42.144;24.794;2023-02-28T07:22:49;20.70;;;11.70;;
5349;SDS011;2697;42.144;24.794;2023-02-28T07:25:21;15.00;;;9.27;;
5349;SDS011;2697;42.144;24.794;2023-02-28T07:27:50;25.83;;;10.17;;
5349;SDS011;2697;42.144;24.794;2023-02-28T07:30:16;23.43;;;13.23;;
5349;SDS011;2697;42.144;24.794;2023-02-28T07:32:41;26.37;;;11.03;;
5349;SDS011;2697;42.144;24.794;2023-02-28T07:35:07;27.00;;;13.97;;
5349;SDS011;2697;42.144;24.794;2023-02-28T07:37:33;22.43;;;12.50;;
5349;SDS011;2697;42.144;24.794;2023-02-28T07:40:05;27.93;;;12.77;;
5349;SDS011;2697;42.144;24.794;2023-02-28T07:42:33;19.03;;;8.10;;
5349;SDS011;2697;42.144;24.794;2023-02-28T07:45:03;21.50;;;9.93;;
5349;SDS011;2697;42.144;24.794;2023-02-28T07:47:29;26.80;;;12.90;;
5349;SDS011;2697;42.144;24.794;2023-02-28T07:49:55;29.83;;;10.63;;
5349;SDS011;2697;42.144;24.794;2023-02-28T07:52:20;27.87;;;13.27;;
5349;SDS011;2697;42.144;24.794;2023-02-28T07:54:46;21.93;;;9.50;;
5349;SDS011;2697;42.144;24.794;2023-02-28T07:57:11;22.30;;;10.10;;
5349;SDS011;2697;42.144;24.794;2023-02-28T07:59:37;35.77;;;17.13;;
5349;SDS011;2697;42.144;24.794;2023-02-28T08:02:02;53.97;;;17.57;;
5349;SDS011;2697;42.144;24.794;2023-02-28T08:04:27;34.53;;;14.83;;
5349;SDS011;2697;42.144;24.794;2023-02-28T08:06:54;30.50;;;14.03;;
5349;SDS011;2697;42.144;24.794;2023-02-28T08:09:21;25.57;;;10.90;;
5349;SDS011;2697;42.144;24.794;2023-02-28T08:11:46;34.30;;;13.63;;
5349;SDS011;2697;42.144;24.794;2023-02-28T08:14:12;25.13;;;9.87;;
5349;SDS011;2697;42.144;24.794;2023-02-28T08:16:37;24.93;;;11.70;;
5349;SDS011;2697;42.144;24.794;2023-02-28T08:19:03;31.47;;;12.80;;
5349;SDS011;2697;42.144;24.794;2023-02-28T08:21:29;37.43;;;13.33;;
5349;SDS011;2697;42.144;24.794;2023-02-28T08:23:54;40.37;;;10.93;;
5349;SDS011;2697;42.144;24.794;2023-02-28T08:26:21;23.47;;;12.77;;
5349;SDS011;2697;42.144;24.794;2023-02-28T08:28:47;25.97;;;12.73;;
5349;SDS011;2697;42.144;24.794;2023-02-28T08:31:13;20.20;;;11.87;;
5349;SDS011;2697;42.144;24.794;2023-02-28T08:33:40;38.10;;;16.70;;
5349;SDS011;2697;42.144;24.794;2023-02-28T08:36:07;39.03;;;16.90;;
5349;SDS011;2697;42.144;24.794;2023-02-28T08:38:34;34.27;;;15.33;;
5349;SDS011;2697;42.144;24.794;2023-02-28T08:41:02;37.27;;;15.17;;
5349;SDS011;2697;42.144;24.794;2023-02-28T08:43:32;43.13;;;18.20;;
5349;SDS011;2697;42.144;24.794;2023-02-28T08:45:58;34.10;;;17.67;;
5349;SDS011;2697;42.144;24.794;2023-02-28T08:48:24;27.50;;;12.17;;
5349;SDS011;2697;42.144;24.794;2023-02-28T08:50:57;30.17;;;14.63;;
5349;SDS011;2697;42.144;24.794;2023-02-28T08:53:34;41.63;;;17.67;;
5349;SDS011;2697;42.144;24.794;2023-02-28T08:56:03;28.87;;;12.97;;
5349;SDS011;2697;42.144;24.794;2023-02-28T08:58:34;35.13;;;15.47;;
5349;SDS011;2697;42.144;24.794;2023-02-28T09:01:00;33.30;;;14.67;;
5349;SDS011;2697;42.144;24.794;2023-02-28T09:03:25;26.37;;;14.53;;
5349;SDS011;2697;42.144;24.794;2023-02-28T09:05:55;26.47;;;12.67;;
5349;SDS011;2697;42.144;24.794;2023-02-28T09:08:23;21.93;;;12.27;;
5349;SDS011;2697;42.144;24.794;2023-02-28T09:10:49;32.23;;;15.70;;
5349;SDS011;2697;42.144;24.794;2023-02-28T09:13:14;28.50;;;15.20;;
5349;SDS011;2697;42.144;24.794;2023-02-28T09:15:40;38.03;;;14.13;;
5349;SDS011;2697;42.144;24.794;2023-02-28T09:18:05;26.17;;;12.73;;
5349;SDS011;2697;42.144;24.794;2023-02-28T09:20:31;37.10;;;16.87;;
5349;SDS011;2697;42.144;24.794;2023-02-28T09:22:56;25.50;;;13.00;;
5349;SDS011;2697;42.144;24.794;2023-02-28T09:25:21;23.23;;;12.53;;
5349;SDS011;2697;42.144;24.794;2023-02-28T09:27:47;18.60;;;9.40;;
5349;SDS011;2697;42.144;24.794;2023-02-28T09:30:12;14.60;;;7.20;;
5349;SDS011;2697;42.144;24.794;2023-02-28T09:32:38;31.93;;;15.50;;
5349;SDS011;2697;42.144;24.794;2023-02-28T09:35:03;29.67;;;13.50;;
5349;SDS011;2697;42.144;24.794;2023-02-28T09:37:30;45.00;;;15.30;;
5349;SDS011;2697;42.144;24.794;2023-02-28T09:39:56;32.77;;;15.37;;
5349;SDS011;2697;42.144;24.794;2023-02-28T09:42:23;24.77;;;12.97;;
5349;SDS011;2697;42.144;24.794;2023-02-28T09:44:55;18.50;;;9.67;;
5349;SDS011;2697;42.144;24.794;2023-02-28T09:47:32;22.10;;;12.13;;
5349;SDS011;2697;42.144;24.794;2023-02-28T09:50:48;25.83;;;14.10;;
5349;SDS011;2697;42.144;24.794;2023-02-28T09:53:01;35.40;;;16.80;;
5349;SDS011;2697;42.144;24.794;2023-02-28T09:55:38;26.83;;;13.70;;
5349;SDS011;2697;42.144;24.794;2023-02-28T09:58:16;40.43;;;18.17;;
5349;SDS011;2697;42.144;24.794;2023-02-28T10:01:37;34.33;;;13.53;;
5349;SDS011;2697;42.144;24.794;2023-02-28T10:06:44;28.67;;;12.87;;
5349;SDS011;2697;42.144;24.794;2023-02-28T10:09:19;30.53;;;14.63;;
5349;SDS011;2697;42.144;24.794;2023-02-28T10:11:52;37.87;;;15.77;;
5349;SDS011;2697;42.144;24.794;2023-02-28T10:14:20;41.67;;;20.97;;
5349;SDS011;2697;42.144;24.794;2023-02-28T10:16:49;54.40;;;20.07;;
5349;SDS011;2697;42.144;24.794;2023-02-28T10:24:30;38.10;;;15.97;;
5349;SDS011;2697;42.144;24.794;2023-02-28T10:27:01;34.83;;;14.47;;
5349;SDS011;2697;42.144;24.794;2023-02-28T10:29:37;17.43;;;9.37;;
5349;SDS011;2697;42.144;24.794;2023-02-28T10:32:08;20.67;;;11.43;;
5349;SDS011;2697;42.144;24.794;2023-02-28T10:34:39;28.27;;;16.23;;
5349;SDS011;2697;42.144;24.794;2023-02-28T10:37:04;36.73;;;17.37;;
5349;SDS011;2697;42.144;24.794;2023-02-28T10:39:34;33.90;;;17.07;;
5349;SDS011;2697;42.144;24.794;2023-02-28T10:42:03;41.50;;;18.37;;
5349;SDS011;2697;42.144;24.794;2023-02-28T10:44:29;26.07;;;15.00;;
5349;SDS011;2697;42.144;24.794;2023-02-28T10:46:54;43.20;;;18.53;;
5349;SDS011;2697;42.144;24.794;2023-02-28T10:49:25;48.33;;;19.53;;
5349;SDS011;2697;42.144;24.794;2023-02-28T10:51:56;29.23;;;15.73;;
5349;SDS011;2697;42.144;24.794;2023-02-28T10:54:29;34.73;;;17.97;;
5349;SDS011;2697;42.144;24.794;2023-02-28T10:57:07;40.40;;;15.67;;
5349;SDS011;2697;42.144;24.794;2023-02-28T10:59:33;23.20;;;11.77;;
5349;SDS011;2697;42.144;24.794;2023-02-28T11:01:58;38.93;;;17.70;;
5349;SDS011;2697;42.144;24.794;2023-02-28T11:06:59;42.73;;;20.47;;
5349;SDS011;2697;42.144;24.794;2023-02-28T11:09:33;28.50;;;12.67;;
5349;SDS011;2697;42.144;24.794;2023-02-28T11:12:00;29.90;;;13.97;;
5349;SDS011;2697;42.144;24.794;2023-02-28T11:14:33;34.17;;;16.70;;
5349;SDS011;2697;42.144;24.794;2023-02-28T11:17:13;37.70;;;18.57;;
5349;SDS011;2697;42.144;24.794;2023-02-28T11:19:45;37.27;;;17.90;;
5349;SDS011;2697;42.144;24.794;2023-02-28T11:22:16;30.60;;;14.67;;
5349;SDS011;2697;42.144;24.794;2023-02-28T11:24:45;45.73;;;19.33;;
5349;SDS011;2697;42.144;24.794;2023-02-28T11:27:25;50.97;;;19.60;;
5349;SDS011;2697;42.144;24.794;2023-02-28T11:30:22;46.37;;;22.67;;
5349;SDS011;2697;42.144;24.794;2023-02-28T11:33:00;38.73;;;20.43;;
5349;SDS011;2697;42.144;24.794;2023-02-28T11:35:40;45.77;;;22.60;;
5349;SDS011;2697;42.144;24.794;2023-02-28T11:38:09;32.00;;;17.13;;
5349;SDS011;2697;42.144;24.794;2023-02-28T11:40:46;36.73;;;20.37;;
5349;SDS011;2697;42.144;24.794;2023-02-28T11:43:30;40.07;;;20.47;;
5349;SDS011;2697;42.144;24.794;2023-02-28T11:52:14;37.33;;;19.37;;
5349;SDS011;2697;42.144;24.794;2023-02-28T11:55:46;49.53;;;22.87;;
5349;SDS011;2697;42.144;24.794;2023-02-28T12:03:27;64.53;;;25.17;;
5349;SDS011;2697;42.144;24.794;2023-02-28T12:14:25;67.23;;;27.50;;
5349;SDS011;2697;42.144;24.794;2023-02-28T12:25:50;67.70;;;25.93;;
5349;SDS011;2697;42.144;24.794;2023-02-28T12:28:24;54.77;;;26.47;;
5349;SDS011;2697;42.144;24.794;2023-02-28T12:31:36;54.77;;;21.47;;
5349;SDS011;2697;42.144;24.794;2023-02-28T12:36:48;48.77;;;20.83;;
5349;SDS011;2697;42.144;24.794;2023-02-28T12:39:19;51.33;;;22.90;;
5349;SDS011;2697;42.144;24.794;2023-02-28T12:41:51;31.00;;;17.30;;
5349;SDS011;2697;42.144;24.794;2023-02-28T12:44:24;43.70;;;20.30;;
5349;SDS011;2697;42.144;24.794;2023-02-28T12:46:57;43.50;;;18.20;;
5349;SDS011;2697;42.144;24.794;2023-02-28T12:49:31;43.33;;;13.13;;
5349;SDS011;2697;42.144;24.794;2023-02-28T12:51:59;37.40;;;17.57;;
5349;SDS011;2697;42.144;24.794;2023-02-28T12:54:31;39.57;;;19.80;;
5349;SDS011;2697;42.144;24.794;2023-02-28T13:00:16;47.77;;;25.40;;
5349;SDS011;2697;42.144;24.794;2023-02-28T13:07:54;52.87;;;23.97;;
5349;SDS011;2697;42.144;24.794;2023-02-28T13:10:21;54.07;;;26.03;;
5349;SDS011;2697;42.144;24.794;2023-02-28T13:12:51;38.83;;;17.10;;
5349;SDS011;2697;42.144;24.794;2023-02-28T13:15:22;56.57;;;24.53;;
5349;SDS011;2697;42.144;24.794;2023-02-28T13:17:51;50.73;;;26.40;;
5349;SDS011;2697;42.144;24.794;2023-02-28T13:20:19;59.80;;;24.77;;
5349;SDS011;2697;42.144;24.794;2023-02-28T13:22:48;63.27;;;27.93;;
5349;SDS011;2697;42.144;24.794;2023-02-28T13:27:46;61.50;;;23.70;;
5349;SDS011;2697;42.144;24.794;2023-02-28T13:35:44;62.13;;;26.23;;
5349;SDS011;2697;42.144;24.794;2023-02-28T13:38:24;58.17;;;30.37;;
5349;SDS011;2697;42.144;24.794;2023-02-28T13:41:21;57.33;;;27.20;;
5349;SDS011;2697;42.144;24.794;2023-02-28T13:44:05;59.53;;;26.17;;
5349;SDS011;2697;42.144;24.794;2023-02-28T13:47:20;53.77;;;24.83;;
5349;SDS011;2697;42.144;24.794;2023-02-28T13:51:48;55.23;;;27.90;;
5349;SDS011;2697;42.144;24.794;2023-02-28T13:57:12;63.40;;;25.70;;
5349;SDS011;2697;42.144;24.794;2023-02-28T14:05:15;54.40;;;25.23;;
5349;SDS011;2697;42.144;24.794;2023-02-28T14:07:44;41.33;;;21.97;;
5349;SDS011;2697;42.144;24.794;2023-02-28T14:10:31;50.20;;;24.27;;
5349;SDS011;2697;42.144;24.794;2023-02-28T14:15:39;32.03;;;18.40;;
5349;SDS011;2697;42.144;24.794;2023-02-28T14:18:16;31.17;;;13.73;;
5349;SDS011;2697;42.144;24.794;2023-02-28T14:32:43;32.57;;;17.67;;
5349;SDS011;2697;42.144;24.794;2023-02-28T14:35:20;37.40;;;18.97;;
5349;SDS011;2697;42.144;24.794;2023-02-28T14:37:59;36.33;;;18.40;;
5349;SDS011;2697;42.144;24.794;2023-02-28T14:40:35;36.00;;;19.47;;
5349;SDS011;2697;42.144;24.794;2023-02-28T14:43:05;43.63;;;19.90;;
5349;SDS011;2697;42.144;24.794;2023-02-28T14:45:33;38.87;;;19.47;;
5349;SDS011;2697;42.144;24.794;2023-02-28T14:48:02;45.70;;;22.50;;
5349;SDS011;2697;42.144;24.794;2023-02-28T14:50:34;38.03;;;19.80;;
5349;SDS011;2697;42.144;24.794;2023-02-28T14:53:01;50.10;;;22.90;;
5349;SDS011;2697;42.144;24.794;2023-02-28T14:55:28;46.43;;;24.90;;
5349;SDS011;2697;42.144;24.794;2023-02-28T14:57:56;54.60;;;24.77;;
5349;SDS011;2697;42.144;24.794;2023-02-28T15:00:28;47.40;;;24.13;;
5349;SDS011;2697;42.144;24.794;2023-02-28T15:02:55;40.90;;;21.27;;
5349;SDS011;2697;42.144;24.794;2023-02-28T15:05:26;47.60;;;22.43;;
5349;SDS011;2697;42.144;24.794;2023-02-28T15:10:37;47.60;;;23.40;;
5349;SDS011;2697;42.144;24.794;2023-02-28T15:13:11;45.20;;;20.87;;
5349;SDS011;2697;42.144;24.794;2023-02-28T15:15:41;43.37;;;19.50;;
5349;SDS011;2697;42.144;24.794;2023-02-28T15:18:15;36.83;;;15.13;;
5349;SDS011;2697;42.144;24.794;2023-02-28T15:20:52;33.50;;;16.00;;
5349;SDS011;2697;42.144;24.794;2023-02-28T15:23:19;31.70;;;14.77;;
5349;SDS011;2697;42.144;24.794;2023-02-28T15:25:47;35.10;;;17.63;;
5349;SDS011;2697;42.144;24.794;2023-02-28T15:28:14;31.30;;;15.60;;
5349;SDS011;2697;42.144;24.794;2023-02-28T15:30:50;28.23;;;14.50;;
5349;SDS011;2697;42.144;24.794;2023-02-28T15:33:32;32.30;;;15.53;;
5349;SDS011;2697;42.144;24.794;2023-02-28T15:36:05;35.67;;;17.43;;
5349;SDS011;2697;42.144;24.794;2023-02-28T15:38:33;43.80;;;19.60;;
5349;SDS011;2697;42.144;24.794;2023-02-28T15:41:00;36.93;;;14.43;;
5349;SDS011;2697;42.144;24.794;2023-02-28T15:43:26;44.10;;;18.20;;
5349;SDS011;2697;42.144;24.794;2023-02-28T15:46:09;32.80;;;14.17;;
5349;SDS011;2697;42.144;24.794;2023-02-28T15:48:38;33.77;;;12.37;;
5349;SDS011;2697;42.144;24.794;2023-02-28T15:51:19;25.73;;;12.00;;
5349;SDS011;2697;42.144;24.794;2023-02-28T15:53:48;25.37;;;12.37;;
5349;SDS011;2697;42.144;24.794;2023-02-28T15:56:32;30.63;;;13.73;;
5349;SDS011;2697;42.144;24.794;2023-02-28T15:59:05;22.03;;;9.90;;
5349;SDS011;2697;42.144;24.794;2023-02-28T16:01:33;28.23;;;14.60;;
5349;SDS011;2697;42.144;24.794;2023-02-28T16:04:01;27.57;;;9.77;;
5349;SDS011;2697;42.144;24.794;2023-02-28T16:06:39;19.70;;;9.83;;
5349;SDS011;2697;42.144;24.794;2023-02-28T16:09:10;31.03;;;14.43;;
5349;SDS011;2697;42.144;24.794;2023-02-28T16:11:44;40.47;;;13.40;;
5349;SDS011;2697;42.144;24.794;2023-02-28T16:14:16;33.10;;;14.87;;
5349;SDS011;2697;42.144;24.794;2023-02-28T16:16:45;34.73;;;13.07;;
5349;SDS011;2697;42.144;24.794;2023-02-28T16:19:13;41.60;;;13.27;;
5349;SDS011;2697;42.144;24.794;2023-02-28T16:21:38;39.30;;;15.10;;
5349;SDS011;2697;42.144;24.794;2023-02-28T16:24:04;25.40;;;9.33;;
5349;SDS011;2697;42.144;24.794;2023-02-28T16:26:30;25.73;;;14.63;;
5349;SDS011;2697;42.144;24.794;2023-02-28T16:28:55;25.17;;;12.10;;
5349;SDS011;2697;42.144;24.794;2023-02-28T16:31:21;32.70;;;12.10;;
5349;SDS011;2697;42.144;24.794;2023-02-28T16:33:46;30.07;;;12.20;;
5349;SDS011;2697;42.144;24.794;2023-02-28T16:36:13;39.43;;;13.67;;
5349;SDS011;2697;42.144;24.794;2023-02-28T16:38:40;30.73;;;13.20;;
5349;SDS011;2697;42.144;24.794;2023-02-28T16:41:06;41.57;;;14.30;;
5349;SDS011;2697;42.144;24.794;2023-02-28T16:43:31;41.33;;;18.80;;
5349;SDS011;2697;42.144;24.794;2023-02-28T16:45:57;32.50;;;15.60;;
5349;SDS011;2697;42.144;24.794;2023-02-28T16:48:23;40.17;;;17.33;;
5349;SDS011;2697;42.144;24.794;2023-02-28T16:50:50;44.80;;;16.60;;
5349;SDS011;2697;42.144;24.794;2023-02-28T16:53:16;34.87;;;13.90;;
5349;SDS011;2697;42.144;24.794;2023-02-28T16:55:41;62.03;;;18.90;;